SKCL/CLO METAR and TAF weather

Enter ICAO airport designator
Station Type Date Time Source
SKCL METAR 2020/07/13 15:00 UTC NOAA

SKCL 131500Z VRB04KT 9999 SCT017 26/22 A3006 NOSIG


Station Type Date Time Source
SKCL Decoded METAR 2020/07/13 15:00 UTC NOAA

Cali / Alfonso Bonillaaragon, Colombia (SKCL) 03-33N 076-23W 969M
Jul 13, 2020 - 11:00 AM EDT / 2020.07.13 1500 UTC
Wind: Variable at 5 MPH (4 KT):0
Visibility: greater than 7 mile(s):0
Sky conditions: partly cloudy
Temperature: 78 F (26 C)
Dew Point: 71 F (22 C)
Relative Humidity: 78%
Pressure (altimeter): 30.06 in. Hg (1017 hPa)
ob: SKCL 131500Z VRB04KT 9999 SCT017 26/22 A3006 NOSIG
cycle: 15

Station Type Date Time Source
SKCL TAF 2020/07/13 12:47 UTC NOAA

TAF SKCL 131030Z 1312/1412 VRB02KT 9999 FEW025 SCT120
BECMG 1316/1318 33010KT
TEMPO 1321/1323 6000 TSRA SCT020CB BKN090
BECMG 1401/1403 02004KT TX30/1319Z TN19/1410Z

Example: see airport list